createdAt,value
2022-09-01T00:01:26.356Z,99.90
2022-09-01T00:06:34.858Z,94.00
2022-09-01T00:11:42.542Z,12.70
2022-09-01T00:16:50.212Z,20.70
2022-09-01T00:21:57.088Z,27.50
2022-09-01T00:27:01.994Z,7.60
2022-09-01T00:32:07.129Z,1.00
2022-09-01T00:37:12.721Z,28.50
2022-09-01T00:42:19.434Z,99.90
2022-09-01T00:47:25.638Z,24.70
2022-09-01T00:52:37.858Z,78.30
2022-09-01T00:57:43.815Z,63.20
2022-09-01T01:02:52.438Z,3.20
2022-09-01T01:07:58.493Z,14.70
2022-09-01T01:13:05.175Z,6.30
2022-09-01T01:18:09.845Z,1.00
2022-09-01T01:23:19.939Z,15.90
2022-09-01T01:28:29.911Z,1.00
2022-09-01T01:33:42.746Z,1.00
2022-09-01T01:38:50.827Z,10.90
2022-09-01T01:43:57.495Z,77.60
2022-09-01T01:49:03.421Z,99.90
2022-09-01T01:54:09.891Z,99.90
2022-09-01T01:59:16.634Z,99.90
2022-09-01T02:04:21.400Z,99.90
2022-09-01T02:09:26.658Z,99.90
2022-09-01T02:14:31.617Z,99.90
2022-09-01T02:19:39.056Z,99.90
2022-09-01T02:24:45.958Z,99.90
2022-09-01T02:29:53.302Z,99.90
2022-09-01T02:35:01.926Z,99.90
2022-09-01T02:40:10.956Z,45.60
2022-09-01T02:45:16.911Z,96.20
2022-09-01T02:50:24.433Z,99.90
2022-09-01T02:55:30.048Z,99.90
2022-09-01T03:00:37.676Z,99.90
2022-09-01T03:05:43.197Z,99.90
2022-09-01T03:10:49.272Z,99.90
2022-09-01T03:15:54.944Z,99.90
2022-09-01T03:20:59.961Z,99.90
2022-09-01T03:26:05.167Z,99.90
2022-09-01T03:31:10.708Z,99.90
2022-09-01T03:36:18.443Z,99.90
2022-09-01T03:41:25.445Z,99.90
2022-09-01T03:46:35.830Z,99.90
2022-09-01T03:51:39.828Z,99.90
2022-09-01T03:56:45.726Z,99.90
2022-09-01T04:01:51.270Z,99.90
2022-09-01T04:06:56.613Z,99.90
2022-09-01T04:12:01.542Z,99.90
2022-09-01T04:17:27.431Z,99.90
2022-09-01T04:22:32.116Z,99.90
2022-09-01T04:27:38.796Z,99.90
2022-09-01T04:32:44.620Z,99.90
2022-09-01T04:37:51.156Z,99.90
2022-09-01T04:42:56.478Z,99.90
2022-09-01T04:48:03.006Z,99.90
2022-09-01T04:53:10.960Z,99.90
2022-09-01T04:58:19.176Z,99.90
2022-09-01T05:03:25.322Z,99.90
2022-09-01T05:08:32.887Z,99.90
2022-09-01T05:13:40.230Z,99.90
2022-09-01T05:18:47.847Z,99.90
2022-09-01T05:23:54.850Z,99.90
2022-09-01T05:29:03.066Z,99.90
2022-09-01T05:34:09.821Z,99.90
2022-09-01T05:39:16.172Z,99.90
2022-09-01T05:44:26.336Z,99.90
2022-09-01T05:49:33.060Z,99.90
2022-09-01T05:54:38.424Z,99.90
2022-09-01T05:59:43.338Z,99.90
2022-09-01T06:04:50.437Z,99.90
2022-09-01T06:09:57.362Z,99.90
2022-09-01T06:15:03.377Z,99.90
2022-09-01T06:20:12.482Z,99.90
2022-09-01T06:25:18.733Z,99.90
2022-09-01T06:30:25.467Z,99.90
2022-09-01T06:35:30.420Z,99.90
2022-09-01T06:40:38.620Z,99.90
2022-09-01T06:45:50.293Z,99.90
2022-09-01T06:56:02.775Z,15.60
2022-09-01T07:01:18.521Z,1.00
2022-09-01T07:16:51.816Z,1.00
2022-09-01T07:22:08.422Z,1.00
2022-09-01T07:27:07.711Z,1.00
2022-09-01T07:38:47.031Z,1.00
2022-09-01T07:52:39.078Z,1.00
2022-09-01T07:57:46.866Z,1.00
2022-09-01T08:02:57.034Z,1.00
2022-09-01T08:08:00.070Z,1.00
2022-09-01T08:13:05.969Z,1.00
2022-09-01T08:18:14.450Z,1.00
2022-09-01T08:23:21.163Z,1.00
2022-09-01T08:28:27.073Z,1.00
2022-09-01T08:33:34.581Z,1.00
2022-09-01T08:38:40.819Z,1.00
2022-09-01T08:43:52.143Z,1.00
2022-09-01T08:54:18.078Z,99.90
2022-09-01T08:59:25.256Z,99.90
2022-09-01T09:04:51.148Z,99.90
2022-09-01T09:10:10.057Z,99.90
2022-09-01T09:15:26.483Z,1.00
2022-09-01T09:20:31.061Z,1.00
2022-09-01T09:25:36.920Z,1.00
2022-09-01T09:30:42.075Z,1.00
2022-09-01T09:35:48.529Z,1.00
2022-09-01T09:41:26.134Z,99.90
2022-09-01T09:46:30.922Z,99.90
2022-09-01T09:51:37.248Z,99.90
2022-09-01T09:56:46.778Z,1.00
2022-09-01T10:01:53.230Z,1.00
2022-09-01T10:06:58.546Z,1.00
2022-09-01T10:12:05.581Z,1.00
2022-09-01T10:17:15.962Z,1.00
2022-09-01T10:22:22.884Z,99.90
2022-09-01T10:27:34.501Z,1.00
2022-09-01T10:32:52.537Z,1.00
2022-09-01T10:37:55.745Z,1.00
2022-09-01T10:43:21.920Z,1.00
2022-09-01T10:48:36.523Z,1.00
2022-09-01T10:53:47.015Z,1.00
2022-09-01T11:04:32.945Z,1.00
2022-09-01T11:09:44.369Z,1.00
2022-09-01T11:14:55.490Z,1.00
2022-09-01T11:20:23.133Z,99.90
2022-09-01T11:26:19.675Z,99.90
2022-09-01T11:31:09.130Z,99.90
2022-09-01T11:36:26.393Z,99.90
2022-09-01T11:41:35.193Z,99.90
2022-09-01T11:46:42.527Z,99.90
2022-09-01T11:51:49.538Z,1.00
2022-09-01T11:56:55.358Z,1.00
2022-09-01T12:02:01.643Z,1.00
2022-09-01T12:07:16.364Z,1.00
2022-09-01T12:12:36.416Z,1.00
2022-09-01T12:17:41.633Z,1.00
2022-09-01T12:22:48.260Z,99.90
2022-09-01T12:27:54.181Z,99.90
2022-09-01T12:38:24.954Z,99.90
2022-09-01T12:43:37.060Z,99.90
2022-09-01T12:48:42.889Z,1.00
2022-09-01T12:54:04.509Z,1.00
2022-09-01T12:59:15.844Z,1.00
2022-09-01T13:04:33.841Z,1.00
2022-09-01T13:09:39.897Z,1.00
2022-09-01T13:14:46.270Z,1.00
2022-09-01T13:19:51.938Z,1.00
2022-09-01T13:24:57.547Z,99.90
2022-09-01T13:30:05.127Z,99.90
2022-09-01T13:40:39.190Z,99.90
2022-09-01T13:45:45.314Z,99.90
2022-09-01T13:56:04.393Z,1.00
2022-09-01T14:01:11.424Z,1.00
2022-09-01T14:06:17.874Z,1.00
2022-09-01T14:11:23.499Z,1.00
2022-09-01T14:16:30.089Z,99.90
2022-09-01T14:21:36.058Z,1.00
2022-09-01T14:26:44.794Z,1.00
2022-09-01T14:31:52.115Z,99.90
2022-09-01T14:36:59.217Z,1.00
2022-09-01T14:42:06.766Z,99.90
2022-09-01T14:47:19.401Z,99.90
2022-09-01T14:52:22.775Z,99.90
2022-09-01T14:57:30.921Z,99.90
2022-09-01T15:02:36.243Z,99.90
2022-09-01T15:07:42.621Z,1.00
2022-09-01T15:12:49.789Z,1.00
2022-09-01T15:17:55.914Z,99.90
2022-09-01T15:23:02.037Z,99.90
2022-09-01T15:28:07.486Z,1.00
2022-09-01T15:33:15.747Z,1.00
2022-09-01T15:38:21.580Z,1.00
2022-09-01T15:43:27.996Z,1.00
2022-09-01T15:48:33.715Z,99.90
2022-09-01T15:53:39.215Z,99.90
2022-09-01T15:59:00.648Z,99.90
2022-09-01T16:03:52.635Z,99.90
2022-09-01T16:08:57.756Z,1.00
2022-09-01T16:14:03.522Z,1.00
2022-09-01T16:19:32.540Z,1.00
2022-09-01T16:24:44.663Z,55.20
2022-09-01T16:29:55.140Z,99.90
2022-09-01T16:35:05.593Z,99.90
2022-09-01T16:40:42.344Z,1.00
2022-09-01T16:46:00.445Z,99.90
2022-09-01T16:51:14.164Z,99.90
2022-09-01T16:56:27.006Z,99.90
2022-09-01T17:01:52.818Z,1.00
2022-09-01T17:07:02.090Z,1.00
2022-09-01T17:12:17.859Z,1.00
2022-09-01T17:17:27.996Z,94.40
2022-09-01T17:22:35.641Z,1.00
2022-09-01T17:27:53.436Z,99.90
2022-09-01T17:33:13.061Z,99.90
2022-09-01T17:38:29.327Z,99.90
2022-09-01T17:44:03.348Z,1.00
2022-09-01T17:49:25.339Z,1.00
2022-09-01T17:54:48.924Z,99.90
2022-09-01T17:59:59.853Z,99.90
2022-09-01T18:05:24.766Z,99.90
2022-09-01T18:10:35.703Z,1.00
2022-09-01T18:15:54.438Z,1.00
2022-09-01T18:21:08.646Z,1.00
2022-09-01T18:26:17.335Z,1.00
2022-09-01T18:31:38.155Z,1.00
2022-09-01T18:37:10.941Z,1.00
2022-09-01T18:42:22.701Z,1.00
2022-09-01T18:47:36.792Z,1.00
2022-09-01T18:53:02.575Z,1.00
2022-09-01T18:58:12.073Z,1.00
2022-09-01T19:03:20.998Z,1.00
2022-09-01T19:08:41.807Z,1.00
2022-09-01T19:14:02.024Z,1.00
2022-09-01T19:19:15.948Z,1.00
2022-09-01T19:24:40.417Z,1.00
2022-09-01T19:29:54.102Z,1.00
2022-09-01T19:35:02.256Z,1.00
2022-09-01T19:40:10.777Z,1.00
2022-09-01T19:45:24.552Z,1.00
2022-09-01T19:50:32.731Z,1.00
2022-09-01T19:55:47.427Z,1.00
2022-09-01T20:00:58.914Z,1.00
2022-09-01T20:06:17.392Z,1.00
2022-09-01T20:11:38.213Z,1.00
2022-09-01T20:16:46.190Z,1.00
2022-09-01T20:21:51.903Z,1.00
2022-09-01T20:27:03.005Z,1.00
2022-09-01T20:32:09.096Z,1.00
2022-09-01T20:37:23.254Z,1.00
2022-09-01T20:42:47.612Z,1.00
2022-09-01T20:48:03.642Z,1.00
2022-09-01T20:53:26.368Z,1.00
2022-09-01T20:58:52.978Z,1.00
2022-09-01T21:04:15.101Z,1.00
2022-09-01T21:09:35.738Z,1.00
2022-09-01T21:14:51.537Z,1.00
2022-09-01T21:20:14.080Z,1.00
2022-09-01T21:25:20.594Z,1.00
2022-09-01T21:30:26.513Z,1.00
2022-09-01T21:35:32.213Z,1.00
2022-09-01T21:40:37.757Z,1.00
2022-09-01T21:45:43.138Z,1.00
2022-09-01T21:50:50.047Z,1.00
2022-09-01T21:55:55.056Z,1.00
2022-09-01T22:01:02.868Z,1.00
2022-09-01T22:06:12.837Z,1.00
2022-09-01T22:11:18.234Z,1.00
2022-09-01T22:16:23.732Z,1.00
2022-09-01T22:21:30.229Z,1.00
2022-09-01T22:26:36.885Z,1.00
2022-09-01T22:31:41.470Z,1.00
2022-09-01T22:36:49.948Z,1.00
2022-09-01T22:41:55.535Z,1.00
2022-09-01T22:47:01.905Z,1.00
2022-09-01T22:52:06.928Z,1.00
2022-09-01T22:57:12.803Z,1.00
2022-09-01T23:02:19.525Z,1.00
2022-09-01T23:07:25.088Z,1.00
2022-09-01T23:12:30.261Z,1.00
2022-09-01T23:17:37.853Z,1.00
2022-09-01T23:22:44.949Z,1.00
2022-09-01T23:27:50.965Z,1.00
2022-09-01T23:32:57.079Z,1.00
2022-09-01T23:38:03.661Z,1.00
2022-09-01T23:43:10.079Z,1.00
2022-09-01T23:48:17.484Z,1.00
2022-09-01T23:53:26.104Z,1.00
2022-09-01T23:58:32.509Z,1.00
